Time;durP1;ratioP1;P1;durP2;ratioP2;P2;SDS_P1;SDS_P2;PMS_P1;PMS_P2;Temp;Humidity;BMP_temperature;BMP_pressure;BME280_temperature;BME280_humidity;BME280_pressure;Samples;Min_cycle;Max_cycle;Signal;HPM_P1;HPM_P2
2021/01/03 14:01:43;;;;;;;26.83;14.70;;;5.80;99.90;;;;;;4994926;23;20468;-86
2021/01/03 18:31:50;;;;;;;21.83;12.63;;;5.40;99.90;;;;;;4954238;28;20489;-84
2021/01/03 18:34:21;;;;;;;18.03;10.87;;;5.40;99.90;;;;;;4955211;29;20455;-84
2021/01/03 18:36:55;;;;;;;21.30;11.60;;;5.40;99.90;;;;;;4957128;29;20471;-84
2021/01/03 18:39:26;;;;;;;20.00;10.53;;;5.50;99.90;;;;;;4956937;29;20464;-85
2021/01/03 18:42:01;;;;;;;19.27;10.10;;;5.50;99.90;;;;;;4955291;29;20214;-85
2021/01/03 18:44:34;;;;;;;14.37;9.70;;;5.60;99.90;;;;;;4975566;28;20189;-84
2021/01/03 18:49:49;;;;;;;16.33;10.13;;;5.60;99.90;;;;;;4976113;29;20480;-85
2021/01/03 18:52:22;;;;;;;15.50;9.70;;;5.60;99.90;;;;;;4974941;29;20214;-84
2021/01/03 18:54:52;;;;;;;21.90;11.53;;;5.60;99.90;;;;;;4974349;29;20230;-85
2021/01/03 19:00:12;;;;;;;19.43;11.37;;;5.70;99.90;;;;;;4980013;28;20194;-85
2021/01/03 19:02:41;;;;;;;14.50;9.57;;;5.70;99.90;;;;;;4961683;29;20646;-85
2021/01/03 19:08:22;;;;;;;13.63;9.50;;;5.60;99.90;;;;;;4972900;28;20494;-85
2021/01/03 19:11:00;;;;;;;15.87;9.97;;;5.30;99.90;;;;;;4972572;29;20460;-85
2021/01/03 19:13:31;;;;;;;21.93;10.93;;;5.20;99.90;;;;;;4955772;29;20955;-85
2021/01/03 19:15:59;;;;;;;18.47;10.90;;;5.30;99.90;;;;;;4956417;29;20511;-85
2021/01/03 19:18:29;;;;;;;22.67;11.43;;;5.40;99.90;;;;;;4956482;29;20472;-85
2021/01/03 19:20:57;;;;;;;19.47;11.23;;;5.30;99.90;;;;;;4973340;29;20456;-85
2021/01/03 19:23:27;;;;;;;16.37;10.50;;;5.40;99.90;;;;;;4956996;29;20512;-85
2021/01/03 19:25:54;;;;;;;19.07;11.20;;;5.40;99.90;;;;;;4972906;29;20963;-85
2021/01/03 19:28:22;;;;;;;19.73;11.00;;;5.50;99.90;;;;;;4971298;29;20492;-85
2021/01/03 19:30:51;;;;;;;16.10;11.07;;;5.40;99.90;;;;;;4973444;29;20535;-85
2021/01/03 19:33:18;;;;;;;19.23;11.50;;;5.40;99.90;;;;;;4977651;28;20444;-85
2021/01/03 19:35:47;;;;;;;16.40;10.07;;;5.50;99.90;;;;;;4962726;29;20289;-85
2021/01/03 19:38:15;;;;;;;18.07;11.63;;;5.40;99.90;;;;;;4979382;29;20467;-85
2021/01/03 19:40:43;;;;;;;23.00;11.23;;;5.30;99.90;;;;;;4978087;28;20828;-85
2021/01/03 19:43:11;;;;;;;20.97;11.13;;;5.40;99.90;;;;;;4979290;28;20531;-85
2021/01/03 19:45:38;;;;;;;17.83;11.17;;;5.30;99.90;;;;;;4979142;28;20507;-85
2021/01/03 19:48:08;;;;;;;17.60;10.50;;;5.30;99.90;;;;;;4979670;29;20480;-85
2021/01/03 19:50:35;;;;;;;18.10;11.23;;;5.20;99.90;;;;;;4978991;28;20448;-85
2021/01/03 19:53:03;;;;;;;15.60;10.50;;;5.10;99.90;;;;;;4961833;29;20459;-85
2021/01/03 19:55:29;;;;;;;14.27;10.00;;;5.20;99.90;;;;;;4978410;28;20475;-85
2021/01/03 19:57:58;;;;;;;16.10;10.73;;;5.20;99.90;;;;;;4978629;28;20486;-85
2021/01/03 20:00:25;;;;;;;16.20;10.27;;;5.30;99.90;;;;;;4978918;28;20459;-85
2021/01/03 20:02:56;;;;;;;16.50;10.43;;;5.20;99.90;;;;;;4978918;29;20462;-85
2021/01/03 20:05:22;;;;;;;19.00;10.47;;;5.20;99.90;;;;;;4979570;28;20471;-85
2021/01/03 20:07:50;;;;;;;14.30;9.40;;;5.20;99.90;;;;;;4978747;28;20483;-85
2021/01/03 20:10:18;;;;;;;18.03;9.73;;;5.20;99.90;;;;;;4978049;28;20931;-85
2021/01/03 20:12:47;;;;;;;15.67;9.63;;;5.20;99.90;;;;;;4978643;28;20444;-85
2021/01/03 20:15:15;;;;;;;14.88;9.63;;;5.10;99.90;;;;;;4993324;28;20440;-86
2021/01/03 20:17:43;;;;;;;15.83;9.10;;;5.10;99.90;;;;;;4978766;29;20238;-85
2021/01/03 20:54:20;;;;;;;17.27;8.73;;;5.20;99.90;;;;;;5326546;23;20495;-84
